createdAt,value
2018-05-09T00:00:15.499Z,7.74
2018-05-09T00:01:15.498Z,7.68
2018-05-09T00:02:15.510Z,7.71
2018-05-09T00:03:15.522Z,7.73
2018-05-09T00:04:15.486Z,7.74
2018-05-09T00:05:15.540Z,7.69
2018-05-09T00:06:15.888Z,7.71
2018-05-09T00:07:15.494Z,7.74
2018-05-09T00:08:15.561Z,7.68
2018-05-09T00:09:15.493Z,7.71
2018-05-09T00:10:15.530Z,7.7
2018-05-09T00:11:15.503Z,7.72
2018-05-09T00:12:15.500Z,7.69
2018-05-09T00:13:15.519Z,7.75
2018-05-09T00:14:15.619Z,7.73
2018-05-09T00:15:15.497Z,7.74
2018-05-09T00:16:15.922Z,7.72
2018-05-09T00:17:15.648Z,7.73
2018-05-09T00:18:15.518Z,7.71
2018-05-09T00:19:15.514Z,7.71
2018-05-09T00:20:15.490Z,7.68
2018-05-09T00:21:15.500Z,7.74
2018-05-09T00:22:15.506Z,7.74
2018-05-09T00:23:15.548Z,7.72
2018-05-09T00:24:15.503Z,7.71
2018-05-09T00:25:15.485Z,7.72
2018-05-09T00:26:15.532Z,7.75
2018-05-09T00:27:15.515Z,7.71
2018-05-09T00:28:15.504Z,7.74
2018-05-09T00:29:15.519Z,7.71
2018-05-09T00:30:15.525Z,7.73
2018-05-09T00:31:15.730Z,7.74
2018-05-09T00:32:15.497Z,7.71
2018-05-09T00:33:15.542Z,7.69
2018-05-09T00:34:15.522Z,7.72
2018-05-09T00:35:15.507Z,7.74
2018-05-09T00:36:15.493Z,7.72
2018-05-09T00:37:15.496Z,7.72
2018-05-09T00:38:15.512Z,7.71
2018-05-09T00:39:15.522Z,7.72
2018-05-09T00:40:15.515Z,7.76
2018-05-09T00:41:15.505Z,7.68
2018-05-09T00:42:15.524Z,7.76
2018-05-09T00:43:15.634Z,7.74
2018-05-09T00:44:15.551Z,7.74
2018-05-09T00:45:15.532Z,7.73
2018-05-09T00:46:15.539Z,7.74
2018-05-09T00:47:15.536Z,7.74
2018-05-09T00:48:15.828Z,7.75
2018-05-09T00:49:15.539Z,7.74
2018-05-09T00:50:16.162Z,7.77
2018-05-09T00:51:15.517Z,7.77
2018-05-09T00:52:15.523Z,7.77
2018-05-09T00:53:15.914Z,7.81
2018-05-09T00:54:15.688Z,7.78
2018-05-09T00:55:15.588Z,7.77
2018-05-09T00:56:15.565Z,7.8
2018-05-09T00:57:15.493Z,7.82
2018-05-09T00:58:15.537Z,7.75
2018-05-09T00:59:15.554Z,7.8
2018-05-09T01:00:15.532Z,7.79
2018-05-09T01:01:15.541Z,7.81
2018-05-09T01:02:15.573Z,7.81
2018-05-09T01:03:15.592Z,7.8
2018-05-09T01:04:15.561Z,7.82
2018-05-09T01:05:15.576Z,7.8
2018-05-09T01:06:15.552Z,7.8
2018-05-09T01:07:15.547Z,7.8
2018-05-09T01:08:15.551Z,7.79
2018-05-09T01:09:15.535Z,7.77
2018-05-09T01:10:15.568Z,7.79
2018-05-09T01:11:15.573Z,7.81
2018-05-09T01:12:15.572Z,7.8
2018-05-09T01:13:15.563Z,7.8
2018-05-09T01:14:15.530Z,7.82
2018-05-09T01:15:15.634Z,7.77
2018-05-09T01:16:15.609Z,7.79
2018-05-09T01:17:15.554Z,7.79
2018-05-09T01:18:15.599Z,7.79
2018-05-09T01:19:15.625Z,7.82
2018-05-09T01:20:15.566Z,7.8
2018-05-09T01:21:15.561Z,7.8
2018-05-09T01:22:15.556Z,7.79
2018-05-09T01:23:15.668Z,7.79
2018-05-09T01:24:15.566Z,7.75
2018-05-09T01:25:15.604Z,7.82
2018-05-09T01:26:15.963Z,7.83
2018-05-09T01:27:15.553Z,7.81
2018-05-09T01:28:15.569Z,7.81
2018-05-09T01:29:15.581Z,7.81
2018-05-09T01:30:15.547Z,7.81
2018-05-09T01:31:15.553Z,7.85
2018-05-09T01:32:15.693Z,7.78
2018-05-09T01:33:15.598Z,7.83
2018-05-09T01:34:15.587Z,7.83
2018-05-09T01:35:15.589Z,7.81
2018-05-09T01:36:15.715Z,7.78
2018-05-09T01:37:15.607Z,7.86
2018-05-09T01:38:15.639Z,7.82
2018-05-09T01:39:15.607Z,7.79
2018-05-09T01:40:15.622Z,7.83
2018-05-09T01:41:15.573Z,7.78
2018-05-09T01:42:15.653Z,7.85
2018-05-09T01:43:15.595Z,7.83
2018-05-09T01:44:15.571Z,7.85
2018-05-09T01:45:15.584Z,7.83
2018-05-09T01:46:15.591Z,7.86
2018-05-09T01:47:15.598Z,7.85
2018-05-09T01:48:15.615Z,7.85
2018-05-09T01:49:15.750Z,7.83
2018-05-09T01:50:15.701Z,7.85
2018-05-09T01:51:15.642Z,7.84
2018-05-09T01:52:15.603Z,7.81
2018-05-09T01:53:15.837Z,7.84
2018-05-09T01:54:15.620Z,7.84
2018-05-09T01:55:15.655Z,7.86
2018-05-09T01:56:15.632Z,7.85
2018-05-09T01:57:15.578Z,7.84
2018-05-09T01:58:15.563Z,7.84
2018-05-09T01:59:15.572Z,7.86
2018-05-09T02:00:15.590Z,7.86
2018-05-09T02:01:15.583Z,7.84
2018-05-09T02:02:15.601Z,7.83
2018-05-09T02:03:15.606Z,7.85
2018-05-09T02:04:15.633Z,7.86
2018-05-09T02:05:15.594Z,7.82
2018-05-09T02:06:15.560Z,7.86
2018-05-09T02:07:15.619Z,7.85
2018-05-09T02:08:15.598Z,7.86
2018-05-09T02:09:15.584Z,7.87
2018-05-09T02:10:15.634Z,7.85
2018-05-09T02:11:15.647Z,7.88
2018-05-09T02:12:15.578Z,7.88
2018-05-09T02:13:15.567Z,7.87
2018-05-09T02:14:15.616Z,7.89
2018-05-09T02:15:16.168Z,7.87
2018-05-09T02:16:15.596Z,7.89
2018-05-09T02:17:15.612Z,7.91
2018-05-09T02:18:15.588Z,7.83
2018-05-09T02:19:15.605Z,7.89
2018-05-09T02:20:15.777Z,7.92
2018-05-09T02:21:15.761Z,7.86
2018-05-09T02:22:15.614Z,7.87
2018-05-09T02:23:15.653Z,7.84
2018-05-09T02:24:15.573Z,7.85
2018-05-09T02:25:15.592Z,7.9
2018-05-09T02:26:15.589Z,7.91
2018-05-09T02:27:15.595Z,7.88
2018-05-09T02:28:15.584Z,7.92
2018-05-09T02:29:15.639Z,7.87
2018-05-09T02:30:15.684Z,7.89
2018-05-09T02:31:17.280Z,7.9
2018-05-09T02:32:15.723Z,7.91
2018-05-09T02:33:15.710Z,7.88
2018-05-09T02:34:15.632Z,7.87
2018-05-09T02:35:15.689Z,7.87
2018-05-09T02:36:15.691Z,7.83
2018-05-09T02:37:15.663Z,7.88
2018-05-09T02:38:15.666Z,7.89
2018-05-09T02:39:15.671Z,7.89
2018-05-09T02:40:15.680Z,7.88
2018-05-09T02:41:15.701Z,7.89
2018-05-09T02:42:15.665Z,7.9
2018-05-09T02:43:16.325Z,7.89
2018-05-09T02:44:15.665Z,7.89
2018-05-09T02:45:15.762Z,7.89
2018-05-09T02:46:15.694Z,7.89
2018-05-09T02:47:15.806Z,7.9
2018-05-09T02:48:15.680Z,7.89
2018-05-09T02:49:15.758Z,7.9
2018-05-09T02:50:15.800Z,7.84
2018-05-09T02:51:15.810Z,7.87
2018-05-09T02:52:15.694Z,7.85
2018-05-09T02:53:15.663Z,7.89
2018-05-09T02:54:15.700Z,7.86
2018-05-09T02:55:15.859Z,7.88
2018-05-09T02:56:15.825Z,7.9
2018-05-09T02:57:15.794Z,7.92
2018-05-09T02:58:15.858Z,7.91
2018-05-09T02:59:15.678Z,7.9
2018-05-09T03:00:15.751Z,7.89
2018-05-09T03:01:15.701Z,7.91
2018-05-09T03:02:15.743Z,7.92
2018-05-09T03:03:15.690Z,7.86
2018-05-09T03:04:15.703Z,7.93
2018-05-09T03:05:15.682Z,7.92
2018-05-09T03:06:15.725Z,7.91
2018-05-09T03:07:15.731Z,7.88
2018-05-09T03:08:15.709Z,7.86
2018-05-09T03:09:15.801Z,7.91
2018-05-09T03:10:15.813Z,7.88
2018-05-09T03:11:15.703Z,7.86
2018-05-09T03:12:15.698Z,7.9
2018-05-09T03:13:15.710Z,7.91
2018-05-09T03:14:15.692Z,7.9
2018-05-09T03:15:15.783Z,7.9
2018-05-09T03:16:15.723Z,7.93
2018-05-09T03:17:15.876Z,7.91
2018-05-09T03:18:15.688Z,7.9
2018-05-09T03:19:15.839Z,7.9
2018-05-09T03:20:15.776Z,7.9
2018-05-09T03:21:15.667Z,7.92
2018-05-09T03:22:15.662Z,7.83
2018-05-09T03:23:15.707Z,7.93
2018-05-09T03:24:15.672Z,7.86
2018-05-09T03:25:15.670Z,7.92
2018-05-09T03:26:15.657Z,7.87
2018-05-09T03:27:15.720Z,7.89
2018-05-09T03:28:15.681Z,7.9
2018-05-09T03:29:15.742Z,7.91
2018-05-09T03:30:15.727Z,7.9
2018-05-09T03:31:15.762Z,7.9
2018-05-09T03:32:15.666Z,7.91
2018-05-09T03:33:15.788Z,7.95
2018-05-09T03:34:15.741Z,7.91
2018-05-09T03:35:15.655Z,7.87
2018-05-09T03:36:15.707Z,7.87
2018-05-09T03:37:15.700Z,7.91
2018-05-09T03:38:15.681Z,7.98
2018-05-09T03:39:15.722Z,7.95
2018-05-09T03:40:15.735Z,7.96
2018-05-09T03:41:15.686Z,7.92
2018-05-09T03:42:15.697Z,7.95
2018-05-09T03:43:15.706Z,7.9
2018-05-09T03:44:15.792Z,7.9
2018-05-09T03:45:15.908Z,7.9
2018-05-09T03:46:15.823Z,7.98
2018-05-09T03:47:15.709Z,7.96
2018-05-09T03:48:15.768Z,7.99
2018-05-09T03:49:15.888Z,7.93
2018-05-09T03:50:15.775Z,7.96
2018-05-09T03:51:15.774Z,7.98
2018-05-09T03:52:15.816Z,7.9
2018-05-09T03:53:16.175Z,7.98
2018-05-09T03:54:15.894Z,7.94
2018-05-09T03:55:15.732Z,8.01
2018-05-09T03:56:15.768Z,8.01
2018-05-09T03:57:15.815Z,7.97
2018-05-09T03:58:15.719Z,7.95
2018-05-09T03:59:15.735Z,7.97
2018-05-09T04:00:15.761Z,7.99
2018-05-09T04:01:15.850Z,7.96
2018-05-09T04:02:15.701Z,8.01
2018-05-09T04:03:15.846Z,7.98
2018-05-09T04:04:15.754Z,7.98
2018-05-09T04:05:15.881Z,8
2018-05-09T04:06:15.863Z,7.93
2018-05-09T04:07:15.728Z,7.98
2018-05-09T04:08:15.830Z,7.94
2018-05-09T04:09:15.733Z,8.02
2018-05-09T04:10:15.709Z,8.04
2018-05-09T04:11:15.688Z,7.96
2018-05-09T04:12:16.008Z,8
2018-05-09T04:13:16.400Z,8.02
2018-05-09T04:14:15.720Z,7.99
2018-05-09T04:15:15.788Z,8.01
2018-05-09T04:16:15.695Z,8.07
2018-05-09T04:17:15.678Z,8.01
2018-05-09T04:18:15.742Z,8.04
2018-05-09T04:19:15.726Z,7.97
2018-05-09T04:20:15.713Z,8
2018-05-09T04:21:15.835Z,7.97
2018-05-09T04:22:15.809Z,8.04
2018-05-09T04:23:15.897Z,7.97
2018-05-09T04:24:15.826Z,8
2018-05-09T04:25:15.783Z,8.02
2018-05-09T04:26:15.679Z,8
2018-05-09T04:27:15.847Z,8.01
2018-05-09T04:28:16.332Z,7.99
2018-05-09T04:29:15.738Z,8.01
2018-05-09T04:30:15.764Z,7.97
2018-05-09T04:31:15.725Z,7.94
2018-05-09T04:32:15.731Z,7.91
2018-05-09T04:33:15.710Z,8.07
2018-05-09T04:34:15.751Z,7.96
2018-05-09T04:35:15.724Z,7.93
2018-05-09T04:36:16.098Z,7.98
2018-05-09T04:37:15.753Z,7.99
2018-05-09T04:38:15.753Z,7.97
2018-05-09T04:39:15.759Z,8.01
2018-05-09T04:40:15.787Z,7.94
2018-05-09T04:41:15.872Z,7.98
2018-05-09T04:42:15.792Z,7.96
2018-05-09T04:43:15.720Z,8.05
2018-05-09T04:44:15.807Z,8.07
2018-05-09T04:45:15.763Z,8.01
2018-05-09T04:46:15.732Z,7.96
2018-05-09T04:47:15.826Z,8.03
2018-05-09T04:48:15.718Z,8.02
2018-05-09T04:49:16.266Z,7.97
2018-05-09T04:50:15.765Z,7.97
2018-05-09T04:51:15.758Z,7.94
2018-05-09T04:52:15.708Z,8.1
2018-05-09T04:53:15.760Z,8.12
2018-05-09T04:54:15.753Z,8.03
2018-05-09T04:55:15.848Z,8.03
2018-05-09T04:56:15.642Z,8.02
2018-05-09T04:57:15.669Z,7.96
2018-05-09T04:58:15.707Z,7.95
2018-05-09T04:59:15.815Z,8.04
2018-05-09T05:00:15.712Z,8.04
2018-05-09T05:01:15.663Z,8.02
2018-05-09T05:02:15.694Z,8.34
2018-05-09T05:03:15.686Z,8.34
2018-05-09T05:04:15.667Z,8.32
2018-05-09T05:05:15.713Z,8.22
2018-05-09T05:06:15.792Z,8.34
2018-05-09T05:07:15.705Z,8.44
2018-05-09T05:08:15.850Z,8.48
2018-05-09T05:09:15.724Z,8.43
2018-05-09T05:10:15.754Z,8.46
2018-05-09T05:11:15.693Z,8.45
2018-05-09T05:12:15.679Z,8.52
2018-05-09T05:13:15.677Z,8.56
2018-05-09T05:14:16.443Z,8.51
2018-05-09T05:15:15.748Z,8.5
2018-05-09T05:16:15.732Z,8.37
2018-05-09T05:17:15.717Z,8.56
2018-05-09T05:18:15.702Z,8.57
2018-05-09T05:19:15.779Z,8.51
2018-05-09T05:20:15.721Z,8.51
2018-05-09T05:21:15.745Z,8.53
2018-05-09T05:22:15.869Z,8.46
2018-05-09T05:23:15.666Z,8.55
2018-05-09T05:24:15.761Z,8.49
2018-05-09T05:25:15.687Z,8.44
2018-05-09T05:26:15.695Z,8.54
2018-05-09T05:27:15.772Z,8.5
2018-05-09T05:28:15.726Z,8.58
2018-05-09T05:29:15.679Z,8.59
2018-05-09T05:30:15.679Z,8.61
2018-05-09T05:31:15.656Z,8.57
2018-05-09T05:32:15.698Z,8.68
2018-05-09T05:33:15.710Z,8.74
2018-05-09T05:34:15.698Z,8.84
2018-05-09T05:35:15.712Z,8.8
2018-05-09T05:36:15.693Z,8.76
2018-05-09T05:37:15.769Z,8.7
2018-05-09T05:38:16.124Z,8.72
2018-05-09T05:39:15.710Z,8.65
2018-05-09T05:40:15.681Z,8.72
2018-05-09T05:41:15.694Z,8.71
2018-05-09T05:42:15.697Z,8.58
2018-05-09T05:43:15.751Z,8.64
2018-05-09T05:44:15.715Z,8.52
2018-05-09T05:45:17.319Z,8.62
2018-05-09T05:46:15.713Z,8.67
2018-05-09T05:47:15.725Z,8.75
2018-05-09T05:48:15.750Z,8.67
2018-05-09T05:49:15.846Z,8.79
2018-05-09T05:50:15.754Z,8.64
2018-05-09T05:51:15.703Z,8.81
2018-05-09T05:52:15.701Z,8.76
2018-05-09T05:53:15.680Z,8.69
2018-05-09T05:54:15.708Z,8.76
2018-05-09T05:55:15.741Z,8.76
2018-05-09T05:56:15.693Z,8.68
2018-05-09T05:57:15.724Z,8.9
2018-05-09T05:58:15.741Z,8.92
2018-05-09T05:59:15.743Z,8.9
2018-05-09T06:00:15.756Z,8.89
2018-05-09T06:01:15.726Z,8.91
2018-05-09T06:02:15.679Z,8.94
2018-05-09T06:03:15.840Z,8.94
2018-05-09T06:04:15.668Z,8.9
2018-05-09T06:05:15.722Z,8.99
2018-05-09T06:06:15.713Z,8.95
2018-05-09T06:07:15.720Z,8.95
2018-05-09T06:08:15.830Z,8.97
2018-05-09T06:09:15.810Z,9.07
2018-05-09T06:10:15.721Z,8.94
2018-05-09T06:11:15.774Z,8.85
2018-05-09T06:12:15.728Z,8.87
2018-05-09T06:13:15.720Z,8.77
2018-05-09T06:14:15.742Z,8.76
2018-05-09T06:15:15.748Z,8.73
2018-05-09T06:16:15.865Z,8.72
2018-05-09T06:17:16.247Z,8.89
2018-05-09T06:18:15.737Z,9.01
2018-05-09T06:19:15.705Z,8.9
2018-05-09T06:20:15.719Z,8.83
2018-05-09T06:21:15.725Z,8.88
2018-05-09T06:22:15.711Z,8.82
2018-05-09T06:23:15.734Z,8.83
2018-05-09T06:24:16.168Z,8.84
2018-05-09T06:25:15.744Z,8.77
2018-05-09T06:26:15.760Z,8.92
2018-05-09T06:27:15.717Z,8.89
2018-05-09T06:28:15.775Z,8.87
2018-05-09T06:29:15.728Z,8.82
2018-05-09T06:30:15.714Z,8.89
2018-05-09T06:31:15.764Z,8.91
2018-05-09T06:32:15.739Z,8.81
2018-05-09T06:33:15.713Z,8.92
2018-05-09T06:34:15.716Z,8.98
2018-05-09T06:35:15.749Z,8.82
2018-05-09T06:36:15.758Z,8.93
2018-05-09T06:37:15.711Z,8.96
2018-05-09T06:38:15.714Z,8.87
2018-05-09T06:39:15.717Z,8.94
2018-05-09T06:40:15.724Z,9.01
2018-05-09T06:41:15.735Z,8.94
2018-05-09T06:42:15.818Z,8.95
2018-05-09T06:43:15.929Z,8.88
2018-05-09T06:44:15.707Z,8.75
2018-05-09T06:45:15.776Z,8.73
2018-05-09T06:46:15.753Z,8.63
2018-05-09T06:47:15.780Z,8.61
2018-05-09T06:48:15.735Z,8.6
2018-05-09T06:49:15.745Z,8.92
2018-05-09T06:50:15.750Z,8.87
2018-05-09T06:51:15.717Z,8.74
2018-05-09T06:52:15.729Z,8.96
2018-05-09T06:53:15.810Z,8.84
2018-05-09T06:54:15.735Z,8.93
2018-05-09T06:55:15.721Z,8.95
2018-05-09T06:56:15.705Z,8.96
2018-05-09T06:57:15.815Z,9.06
2018-05-09T06:58:15.956Z,8.99
2018-05-09T06:59:15.780Z,8.94
2018-05-09T07:00:15.725Z,8.96
2018-05-09T07:01:15.738Z,8.89
2018-05-09T07:02:15.733Z,8.97
2018-05-09T07:03:15.733Z,8.93
2018-05-09T07:04:15.759Z,8.93
2018-05-09T07:05:15.758Z,9.02
2018-05-09T07:06:16.842Z,9.01
2018-05-09T07:07:15.719Z,9.04
2018-05-09T07:08:15.731Z,8.99
2018-05-09T07:09:15.758Z,9
2018-05-09T07:10:15.728Z,9.01
2018-05-09T07:11:15.729Z,8.89
2018-05-09T07:12:15.734Z,8.89
2018-05-09T07:13:15.751Z,8.91
2018-05-09T07:14:15.747Z,9.05
2018-05-09T07:15:15.776Z,9
2018-05-09T07:16:15.843Z,8.98
2018-05-09T07:17:15.733Z,9.04
2018-05-09T07:18:15.953Z,8.98
2018-05-09T07:19:15.764Z,9.05
2018-05-09T07:20:15.739Z,9.05
2018-05-09T07:21:15.764Z,9.1
2018-05-09T07:22:16.396Z,9.02
2018-05-09T07:23:16.219Z,8.99
2018-05-09T07:24:16.034Z,9
2018-05-09T07:25:15.743Z,9
2018-05-09T07:26:15.753Z,9
2018-05-09T07:27:15.752Z,8.95
2018-05-09T07:28:15.877Z,9.02
2018-05-09T07:29:15.852Z,9.01
2018-05-09T07:30:16.205Z,9.03
2018-05-09T07:31:15.774Z,9.13
2018-05-09T07:32:15.779Z,9.06
2018-05-09T07:33:15.797Z,9.07
2018-05-09T07:34:15.741Z,9.12
2018-05-09T07:35:15.771Z,9.19
2018-05-09T07:36:15.751Z,9.17
2018-05-09T07:37:16.092Z,9.12
2018-05-09T07:38:15.777Z,9.13
2018-05-09T07:39:15.755Z,9.07
2018-05-09T07:40:15.893Z,9.07
2018-05-09T07:41:15.777Z,9.09
2018-05-09T07:42:16.233Z,9.21
2018-05-09T07:43:15.803Z,9.25
2018-05-09T07:44:15.800Z,9.19
2018-05-09T07:45:15.847Z,9.13
2018-05-09T07:46:15.788Z,9.2
2018-05-09T07:47:15.807Z,9.19
2018-05-09T07:48:15.775Z,9.21
2018-05-09T07:49:15.804Z,9.16
2018-05-09T07:50:15.748Z,9.1
2018-05-09T07:51:15.797Z,9.15
2018-05-09T07:52:15.761Z,9.11
2018-05-09T07:53:16.020Z,9.16
2018-05-09T07:54:15.770Z,9.11
2018-05-09T07:55:15.802Z,9.14
2018-05-09T07:56:15.756Z,9.07
2018-05-09T07:57:15.796Z,9.15
2018-05-09T07:58:15.763Z,9.16
2018-05-09T07:59:16.503Z,9.13
2018-05-09T08:00:15.757Z,9.06
2018-05-09T08:01:15.787Z,9
2018-05-09T08:02:15.793Z,8.97
2018-05-09T08:03:15.756Z,8.93
2018-05-09T08:04:15.772Z,8.95
2018-05-09T08:05:15.772Z,9.01
2018-05-09T08:06:15.771Z,9.02
2018-05-09T08:07:15.776Z,8.98
2018-05-09T08:08:15.764Z,8.85
2018-05-09T08:09:15.839Z,8.93
2018-05-09T08:10:15.799Z,8.93
2018-05-09T08:11:15.804Z,8.92
2018-05-09T08:12:16.116Z,8.94
2018-05-09T08:13:15.789Z,8.88
2018-05-09T08:14:15.769Z,8.94
2018-05-09T08:15:15.766Z,8.97
2018-05-09T08:16:15.815Z,8.9
2018-05-09T08:17:15.793Z,8.76
2018-05-09T08:18:15.779Z,8.81
2018-05-09T08:19:15.792Z,8.74
2018-05-09T08:20:15.874Z,8.84
2018-05-09T08:21:15.787Z,8.94
2018-05-09T08:22:15.835Z,9.02
2018-05-09T08:23:15.819Z,8.97
2018-05-09T08:24:15.827Z,8.85
2018-05-09T08:25:15.813Z,8.94
2018-05-09T08:26:15.798Z,8.87
2018-05-09T08:27:15.842Z,8.89
2018-05-09T08:28:15.879Z,8.94
2018-05-09T08:29:15.818Z,8.93
2018-05-09T08:30:16.157Z,9.06
2018-05-09T08:31:15.867Z,9.01
2018-05-09T08:32:15.863Z,9.01
2018-05-09T08:33:15.953Z,8.93
2018-05-09T08:34:15.822Z,8.96
2018-05-09T08:35:15.840Z,8.92
2018-05-09T08:36:16.532Z,8.88
2018-05-09T08:37:15.805Z,8.99
2018-05-09T08:38:15.813Z,8.93
2018-05-09T08:39:15.821Z,9.01
2018-05-09T08:40:15.813Z,8.91
2018-05-09T08:41:15.823Z,9
2018-05-09T08:42:15.829Z,9
2018-05-09T08:43:16.844Z,8.89
2018-05-09T08:44:15.854Z,9.02
2018-05-09T08:45:15.809Z,9
2018-05-09T08:46:15.973Z,8.95
2018-05-09T08:47:15.788Z,8.94
2018-05-09T08:48:15.798Z,8.88
2018-05-09T08:49:16.406Z,8.85
2018-05-09T08:50:15.825Z,8.77
2018-05-09T08:51:15.801Z,8.84
2018-05-09T08:52:15.841Z,8.8
2018-05-09T08:53:15.874Z,8.74
2018-05-09T08:54:15.795Z,8.93
2018-05-09T08:55:15.917Z,8.82
2018-05-09T08:56:15.837Z,8.79
2018-05-09T08:57:15.797Z,8.85
2018-05-09T08:58:15.867Z,8.94
2018-05-09T08:59:15.842Z,8.99
2018-05-09T09:00:15.941Z,8.96
2018-05-09T09:01:15.820Z,8.92
2018-05-09T09:02:15.822Z,8.98
2018-05-09T09:03:15.841Z,9.05
2018-05-09T09:04:16.303Z,8.91
2018-05-09T09:05:15.852Z,9.05
2018-05-09T09:06:15.833Z,9.05
2018-05-09T09:07:15.827Z,9.05
2018-05-09T09:08:15.863Z,9.25
2018-05-09T09:09:15.882Z,9.25
2018-05-09T09:10:15.817Z,9.21
2018-05-09T09:11:15.881Z,9.12
2018-05-09T09:12:15.868Z,9.11
2018-05-09T09:13:15.848Z,9.17
2018-05-09T09:14:15.812Z,9.06
2018-05-09T09:15:16.318Z,9.1
2018-05-09T09:16:15.896Z,9.14
2018-05-09T09:17:15.829Z,9.13
2018-05-09T09:18:15.879Z,9.17
2018-05-09T09:19:15.946Z,9.17
2018-05-09T09:20:15.828Z,9.16
2018-05-09T09:21:15.821Z,9.13
2018-05-09T09:22:15.835Z,9.17
2018-05-09T09:23:15.867Z,9.25
2018-05-09T09:24:15.819Z,9.29
2018-05-09T09:25:15.813Z,9.27
2018-05-09T09:26:15.856Z,9.27
2018-05-09T09:27:15.829Z,9.2
2018-05-09T09:28:15.891Z,9.18
2018-05-09T09:29:16.621Z,9.17
2018-05-09T09:30:15.831Z,9.32
2018-05-09T09:31:15.821Z,9.13
2018-05-09T09:32:15.833Z,9.28
2018-05-09T09:33:15.818Z,9.32
2018-05-09T09:34:15.804Z,9.24
2018-05-09T09:35:15.823Z,9.23
2018-05-09T09:36:15.865Z,9.12
2018-05-09T09:37:15.810Z,9.33
2018-05-09T09:38:15.869Z,9.41
2018-05-09T09:39:15.827Z,9.38
2018-05-09T09:40:15.857Z,9.38
2018-05-09T09:41:15.831Z,9.5
2018-05-09T09:42:15.838Z,9.34
2018-05-09T09:43:15.835Z,9.34
2018-05-09T09:44:15.809Z,9.47
2018-05-09T09:45:15.836Z,9.33
2018-05-09T09:46:15.823Z,9.31
2018-05-09T09:47:15.805Z,9.56
2018-05-09T09:48:15.841Z,9.42
2018-05-09T09:49:15.844Z,9.17
2018-05-09T09:50:15.855Z,9.13
2018-05-09T09:51:15.819Z,9.29
2018-05-09T09:52:15.813Z,9.15
2018-05-09T09:53:15.946Z,9.2
2018-05-09T09:54:15.892Z,9.11
2018-05-09T09:55:15.827Z,9.04
2018-05-09T09:56:15.839Z,9.1
2018-05-09T09:57:15.827Z,8.98
2018-05-09T09:58:15.827Z,8.84
2018-05-09T09:59:15.824Z,8.85
2018-05-09T10:00:15.905Z,9.01
2018-05-09T10:01:15.887Z,9.12
2018-05-09T10:02:15.871Z,9.03
2018-05-09T10:03:15.849Z,9.08
2018-05-09T10:04:15.868Z,8.95
2018-05-09T10:05:15.882Z,9.04
2018-05-09T10:06:15.876Z,9
2018-05-09T10:07:15.823Z,9.15
2018-05-09T10:08:15.855Z,9.23
2018-05-09T10:09:15.866Z,9.28
2018-05-09T10:10:15.936Z,9.17
2018-05-09T10:11:15.861Z,9.09
2018-05-09T10:12:15.871Z,8.94
2018-05-09T10:13:15.847Z,8.93
2018-05-09T10:14:15.844Z,9.09
2018-05-09T10:15:15.899Z,9.13
2018-05-09T10:16:16.387Z,9.15
2018-05-09T10:17:15.903Z,9.17
2018-05-09T10:18:15.838Z,9.09
2018-05-09T10:19:16.243Z,9.15
2018-05-09T10:20:15.862Z,9.23
2018-05-09T10:21:15.863Z,9.37
2018-05-09T10:22:15.845Z,9.24
2018-05-09T10:23:16.444Z,9.13
2018-05-09T10:24:16.026Z,9.12
2018-05-09T10:25:15.889Z,9.24
2018-05-09T10:26:15.897Z,9.11
2018-05-09T10:27:15.838Z,8.98
2018-05-09T10:28:15.855Z,9.1
2018-05-09T10:29:15.885Z,9.04
2018-05-09T10:30:15.926Z,9.12
2018-05-09T10:31:15.861Z,9.27
2018-05-09T10:32:15.849Z,9.07
2018-05-09T10:33:15.901Z,9.23
2018-05-09T10:34:15.842Z,9.38
2018-05-09T10:35:15.870Z,8.92
2018-05-09T10:36:16.021Z,8.85
2018-05-09T10:37:15.860Z,8.66
2018-05-09T10:38:15.878Z,8.67
2018-05-09T10:39:15.873Z,8.62
2018-05-09T10:40:15.900Z,8.69
2018-05-09T10:41:15.880Z,8.69
2018-05-09T10:42:15.872Z,8.9
2018-05-09T10:43:15.875Z,8.64
2018-05-09T10:44:15.856Z,8.87
2018-05-09T10:45:15.870Z,8.93
2018-05-09T10:46:15.858Z,8.73
2018-05-09T10:47:15.882Z,8.83
2018-05-09T10:48:15.861Z,8.8
2018-05-09T10:49:15.916Z,8.77
2018-05-09T10:50:15.878Z,8.81
2018-05-09T10:51:15.880Z,8.91
2018-05-09T10:52:15.887Z,9.08
2018-05-09T10:53:16.025Z,9.12
2018-05-09T10:54:15.932Z,9.13
2018-05-09T10:55:15.884Z,9.07
2018-05-09T10:56:15.868Z,9.03
2018-05-09T10:57:16.378Z,9
2018-05-09T10:58:15.974Z,9.09
2018-05-09T10:59:15.890Z,9.17
2018-05-09T11:00:15.871Z,9.12
2018-05-09T11:01:16.066Z,9.03
2018-05-09T11:02:16.010Z,9.16
2018-05-09T11:03:16.128Z,9.15
2018-05-09T11:04:15.906Z,9.24
2018-05-09T11:05:15.941Z,9.21
2018-05-09T11:06:15.857Z,9.25
2018-05-09T11:07:15.939Z,9.36
2018-05-09T11:08:16.099Z,9.28
2018-05-09T11:09:15.894Z,9.39
2018-05-09T11:10:15.884Z,9.46
2018-05-09T11:11:15.953Z,9.27
2018-05-09T11:12:15.964Z,9.18
2018-05-09T11:13:15.976Z,9.3
2018-05-09T11:14:16.679Z,9.33
2018-05-09T11:15:16.046Z,9.38
2018-05-09T11:16:16.068Z,9.38
2018-05-09T11:17:15.948Z,9.51
2018-05-09T11:18:16.196Z,9.38
2018-05-09T11:19:15.949Z,9.41
2018-05-09T11:20:15.974Z,9.5
2018-05-09T11:21:15.906Z,9.43
2018-05-09T11:22:16.001Z,9.75
2018-05-09T11:23:15.921Z,9.51
2018-05-09T11:24:16.448Z,9.43
2018-05-09T11:25:16.081Z,9.5
2018-05-09T11:26:15.929Z,9.28
2018-05-09T11:27:16.055Z,9.24
2018-05-09T11:28:16.069Z,9.43
2018-05-09T11:29:16.087Z,9.63
2018-05-09T11:30:15.933Z,9.75
2018-05-09T11:31:16.308Z,9.45
2018-05-09T11:32:16.100Z,9.57
2018-05-09T11:33:16.064Z,9.41
2018-05-09T11:34:15.889Z,9.4
2018-05-09T11:35:15.904Z,9.41
2018-05-09T11:36:15.908Z,9.65
2018-05-09T11:37:15.952Z,9.63
2018-05-09T11:38:16.043Z,9.53
2018-05-09T11:39:16.060Z,9.58
2018-05-09T11:40:15.879Z,9.51
2018-05-09T11:41:15.957Z,9.44
2018-05-09T11:42:16.006Z,9.39
2018-05-09T11:43:15.903Z,9.44
2018-05-09T11:44:15.901Z,9.53
2018-05-09T11:45:15.911Z,9.19
2018-05-09T11:46:15.908Z,9.16
2018-05-09T11:47:15.941Z,9.26
2018-05-09T11:48:15.915Z,9.4
2018-05-09T11:49:15.984Z,9.19
2018-05-09T11:50:15.915Z,9.25
2018-05-09T11:51:15.908Z,9.3
2018-05-09T11:52:15.885Z,9.23
2018-05-09T11:53:17.444Z,9.35
2018-05-09T11:54:15.923Z,9.58
2018-05-09T11:55:15.932Z,9.28
2018-05-09T11:56:15.995Z,9.26
2018-05-09T11:57:15.936Z,9.31
2018-05-09T11:58:16.098Z,9.32
2018-05-09T11:59:15.917Z,9.51
2018-05-09T12:00:16.030Z,9.32
2018-05-09T12:01:15.933Z,9.38
2018-05-09T12:02:16.510Z,9.23
2018-05-09T12:03:16.000Z,9.22
2018-05-09T12:04:15.929Z,9.23
2018-05-09T12:05:16.032Z,9.39
2018-05-09T12:06:15.956Z,9.33
2018-05-09T12:07:15.945Z,9.33
2018-05-09T12:08:16.024Z,9.28
2018-05-09T12:09:16.013Z,9.3
2018-05-09T12:10:16.488Z,9.3
2018-05-09T12:11:15.954Z,9.34
2018-05-09T12:12:16.050Z,9.2
2018-05-09T12:13:15.936Z,9.38
2018-05-09T12:14:16.020Z,9.35
2018-05-09T12:15:15.939Z,9.4
2018-05-09T12:16:15.935Z,9.37
2018-05-09T12:17:15.975Z,9.43
2018-05-09T12:18:15.937Z,9.31
2018-05-09T12:19:16.060Z,9.28
2018-05-09T12:20:15.923Z,9.19
2018-05-09T12:21:15.974Z,9.18
2018-05-09T12:22:16.095Z,9.21
2018-05-09T12:23:15.923Z,9.24
2018-05-09T12:24:15.940Z,9.42
2018-05-09T12:25:15.940Z,9.34
2018-05-09T12:26:15.923Z,9.33
2018-05-09T12:27:15.925Z,9.43
2018-05-09T12:28:15.931Z,9.73
2018-05-09T12:29:16.112Z,9.62
2018-05-09T12:30:16.070Z,9.65
2018-05-09T12:31:15.990Z,9.53
2018-05-09T12:32:15.998Z,9.54
2018-05-09T12:33:16.047Z,9.48
2018-05-09T12:34:15.969Z,9.57
2018-05-09T12:35:16.010Z,9.38
2018-05-09T12:36:15.969Z,9.4
2018-05-09T12:37:15.939Z,9.56
2018-05-09T12:38:16.017Z,9.37
2018-05-09T12:39:15.947Z,9.25
2018-05-09T12:40:16.234Z,9.4
2018-05-09T12:41:16.093Z,9.16
2018-05-09T12:42:16.036Z,8.97
2018-05-09T12:43:15.939Z,9.27
2018-05-09T12:44:15.997Z,9.04
2018-05-09T12:45:16.065Z,9.06
2018-05-09T12:46:16.094Z,9.06
2018-05-09T12:47:16.105Z,9.13
2018-05-09T12:48:16.016Z,9.07
2018-05-09T12:49:15.957Z,9.14
2018-05-09T12:50:15.966Z,9.24
2018-05-09T12:51:15.933Z,9.35
2018-05-09T12:52:15.942Z,9.19
2018-05-09T12:53:16.014Z,9.29
2018-05-09T12:54:15.997Z,9.3
2018-05-09T12:55:15.975Z,8.91
2018-05-09T12:56:15.974Z,9.16
2018-05-09T12:57:16.213Z,9.28
2018-05-09T12:58:16.007Z,9.16
2018-05-09T12:59:15.989Z,9.11
2018-05-09T13:00:16.003Z,9.06
2018-05-09T13:01:16.005Z,9.18
2018-05-09T13:02:16.023Z,9.09
2018-05-09T13:03:16.020Z,8.99
2018-05-09T13:04:15.955Z,8.89
2018-05-09T13:05:16.014Z,8.96
2018-05-09T13:06:15.981Z,9.03
2018-05-09T13:07:16.542Z,9.01
2018-05-09T13:08:16.027Z,8.98
2018-05-09T13:09:15.990Z,8.91
2018-05-09T13:10:16.095Z,8.8
2018-05-09T13:11:16.009Z,8.91
2018-05-09T13:12:16.008Z,8.94
2018-05-09T13:13:16.598Z,8.99
2018-05-09T13:14:15.997Z,9.16
2018-05-09T13:15:16.102Z,9.13
2018-05-09T13:16:16.048Z,8.72
2018-05-09T13:17:15.953Z,8.87
2018-05-09T13:18:16.000Z,8.52
2018-05-09T13:19:15.996Z,8.66
2018-05-09T13:20:16.057Z,8.87
2018-05-09T13:21:15.985Z,8.76
2018-05-09T13:22:16.068Z,8.85